Time;durP1;ratioP1;P1;durP2;ratioP2;P2;SDS_P1;SDS_P2;PMS_P1;PMS_P2;Temp;Humidity;BMP_temperature;BMP_pressure;BME280_temperature;BME280_humidity;BME280_pressure;Samples;Min_cycle;Max_cycle;Signal;HPM_P1;HPM_P2
2023/07/08 00:00:47;;;;;;;7.40;6.43;;;21.30;58.00;;;;;;4889994;29;21074;-68
2023/07/08 00:03:16;;;;;;;6.90;6.20;;;21.40;57.90;;;;;;4895811;29;20462;-67
2023/07/08 00:05:42;;;;;;;8.18;5.72;;;21.20;57.80;;;;;;4889820;29;20443;-68
2023/07/08 00:08:13;;;;;;;8.80;6.83;;;21.10;58.20;;;;;;4893337;29;20557;-71
2023/07/08 00:10:39;;;;;;;6.85;6.15;;;21.10;58.30;;;;;;4892667;29;20191;-66
2023/07/08 00:13:04;;;;;;;8.43;6.07;;;21.20;58.60;;;;;;4895631;29;20689;-66
2023/07/08 00:15:32;;;;;;;7.60;6.83;;;21.80;59.20;;;;;;4897272;29;20231;-66
2023/07/08 00:17:58;;;;;;;7.07;6.05;;;21.00;58.50;;;;;;4895937;29;20194;-66
2023/07/08 00:20:34;;;;;;;6.45;5.75;;;21.10;58.60;;;;;;4895987;29;20191;-66
2023/07/08 00:23:03;;;;;;;7.17;6.10;;;21.10;58.70;;;;;;4897273;29;20210;-66
2023/07/08 00:25:30;;;;;;;7.00;5.78;;;21.00;58.70;;;;;;4897130;29;20455;-66
2023/07/08 00:27:55;;;;;;;6.90;6.00;;;20.90;59.00;;;;;;4894334;29;20311;-66
2023/07/08 00:30:23;;;;;;;7.10;6.10;;;20.90;59.70;;;;;;4897965;29;20338;-66
2023/07/08 00:32:53;;;;;;;6.88;5.47;;;20.80;59.10;;;;;;4898088;29;20206;-66
2023/07/08 00:35:31;;;;;;;8.35;5.88;;;20.80;59.60;;;;;;4897135;29;20214;-66
2023/07/08 00:38:02;;;;;;;9.05;6.07;;;20.90;59.50;;;;;;4893641;29;20214;-66
2023/07/08 00:40:32;;;;;;;7.32;6.55;;;20.80;59.20;;;;;;4895772;29;20245;-66
2023/07/08 00:43:01;;;;;;;8.88;6.55;;;20.80;59.80;;;;;;4894725;29;20225;-68
2023/07/08 00:45:37;;;;;;;7.45;6.05;;;20.70;60.00;;;;;;4896389;29;20210;-66
2023/07/08 00:48:24;;;;;;;7.90;6.50;;;20.40;60.10;;;;;;4894286;29;20277;-67
2023/07/08 00:50:50;;;;;;;7.93;5.95;;;20.70;60.60;;;;;;4897030;29;20221;-66
2023/07/08 00:53:32;;;;;;;7.60;6.78;;;20.60;61.20;;;;;;4894074;29;20217;-66
2023/07/08 00:56:13;;;;;;;7.35;6.50;;;20.50;60.80;;;;;;4896720;29;20303;-66
2023/07/08 00:58:54;;;;;;;7.20;5.57;;;20.50;60.70;;;;;;4888979;29;20201;-67
2023/07/08 01:01:19;;;;;;;6.80;6.10;;;20.40;60.90;;;;;;4897498;29;20582;-66
2023/07/08 01:03:55;;;;;;;7.50;6.30;;;20.40;61.40;;;;;;4899484;29;20218;-66
2023/07/08 01:06:23;;;;;;;6.88;6.28;;;20.30;62.50;;;;;;4897058;29;20210;-66
2023/07/08 01:08:52;;;;;;;8.50;6.35;;;20.30;62.10;;;;;;4897303;29;20558;-66
2023/07/08 01:11:21;;;;;;;7.15;5.93;;;20.30;62.00;;;;;;4898505;29;20947;-68
2023/07/08 01:13:50;;;;;;;6.05;5.45;;;20.30;62.30;;;;;;4895735;29;20214;-66
2023/07/08 01:16:16;;;;;;;6.22;5.63;;;20.20;62.10;;;;;;4899466;29;20238;-66
2023/07/08 01:18:42;;;;;;;8.02;6.60;;;20.30;62.50;;;;;;4894633;29;20275;-66
2023/07/08 01:21:34;;;;;;;7.15;6.38;;;20.30;62.90;;;;;;4895527;29;20660;-68
2023/07/08 01:24:02;;;;;;;9.55;5.85;;;20.40;63.00;;;;;;4896874;29;20586;-66
2023/07/08 01:26:31;;;;;;;8.57;6.88;;;20.30;63.20;;;;;;4898521;29;20222;-66
2023/07/08 01:28:57;;;;;;;7.05;6.32;;;20.30;63.70;;;;;;4892593;29;20194;-66
2023/07/08 01:31:24;;;;;;;7.65;6.28;;;20.40;63.70;;;;;;4895219;29;20571;-66
2023/07/08 01:33:51;;;;;;;8.75;7.22;;;20.50;64.20;;;;;;4896054;29;20206;-66
2023/07/08 01:36:18;;;;;;;8.32;6.88;;;20.70;63.80;;;;;;4894882;29;20242;-66
2023/07/08 01:38:45;;;;;;;7.60;6.63;;;20.30;63.80;;;;;;4893269;29;20194;-66
2023/07/08 01:41:13;;;;;;;6.88;6.28;;;20.30;64.60;;;;;;4892857;29;20265;-65
2023/07/08 01:43:38;;;;;;;7.90;5.75;;;20.20;65.10;;;;;;4893721;29;20217;-68
2023/07/08 01:46:09;;;;;;;7.13;6.10;;;20.00;66.10;;;;;;4895488;29;20283;-68
2023/07/08 01:48:40;;;;;;;8.38;5.57;;;19.90;66.40;;;;;;4892000;29;20244;-68
2023/07/08 01:51:07;;;;;;;6.85;6.15;;;19.70;67.10;;;;;;4893479;29;20243;-68
2023/07/08 01:53:41;;;;;;;7.65;6.13;;;19.70;67.90;;;;;;4894953;29;20246;-67
2023/07/08 01:56:08;;;;;;;7.40;5.95;;;19.70;68.50;;;;;;4894828;29;20187;-67
2023/07/08 01:58:34;;;;;;;7.63;6.07;;;19.60;68.50;;;;;;4890223;29;20578;-68
2023/07/08 02:01:00;;;;;;;7.10;6.40;;;19.60;69.30;;;;;;4894187;29;20194;-66
2023/07/08 02:03:26;;;;;;;7.88;6.43;;;19.50;69.60;;;;;;4893256;29;20502;-68
2023/07/08 02:05:51;;;;;;;9.50;6.38;;;19.60;69.60;;;;;;4898364;29;20187;-67
2023/07/08 02:08:17;;;;;;;7.07;6.10;;;19.60;69.80;;;;;;4896340;29;20215;-68
2023/07/08 02:10:48;;;;;;;7.90;6.13;;;19.60;69.90;;;;;;4897732;29;20633;-68
2023/07/08 02:13:13;;;;;;;9.48;6.13;;;19.50;70.10;;;;;;4894369;29;20210;-67
2023/07/08 02:15:39;;;;;;;8.20;6.30;;;19.40;70.80;;;;;;4897619;29;20759;-68
2023/07/08 02:18:04;;;;;;;8.90;6.73;;;19.30;71.30;;;;;;4897147;29;20195;-67
2023/07/08 02:20:30;;;;;;;7.37;6.57;;;19.20;72.10;;;;;;4895387;29;20189;-67
2023/07/08 02:22:56;;;;;;;7.10;6.40;;;19.20;72.60;;;;;;4901683;29;20215;-67
2023/07/08 02:25:21;;;;;;;8.13;5.90;;;19.10;73.00;;;;;;4898862;29;20661;-67
2023/07/08 02:27:47;;;;;;;7.00;6.00;;;19.00;73.30;;;;;;4894768;29;20712;-70
2023/07/08 02:30:13;;;;;;;8.03;6.77;;;19.10;75.10;;;;;;4896290;29;20191;-67
2023/07/08 02:32:38;;;;;;;7.40;5.60;;;19.10;74.70;;;;;;4894300;29;20214;-70
2023/07/08 02:35:06;;;;;;;7.60;6.10;;;19.20;74.00;;;;;;4889965;29;20266;-71
2023/07/08 02:37:32;;;;;;;9.05;6.20;;;19.20;73.50;;;;;;4893532;29;20671;-70
2023/07/08 02:39:58;;;;;;;7.78;6.03;;;19.20;73.70;;;;;;4893880;29;20197;-69
2023/07/08 02:42:23;;;;;;;7.33;6.00;;;19.10;73.70;;;;;;4896341;29;20226;-73
2023/07/08 02:44:49;;;;;;;7.37;5.97;;;19.10;74.30;;;;;;4894113;29;20458;-70
2023/07/08 02:47:14;;;;;;;6.50;5.90;;;19.00;74.40;;;;;;4893128;29;20190;-69
2023/07/08 02:49:40;;;;;;;7.70;6.07;;;19.00;74.40;;;;;;4895724;29;20187;-67
2023/07/08 02:52:06;;;;;;;8.20;5.70;;;19.00;74.00;;;;;;4895773;29;20600;-68
2023/07/08 02:54:32;;;;;;;7.30;5.90;;;19.00;74.70;;;;;;4894653;29;20207;-69
2023/07/08 02:56:57;;;;;;;7.03;6.33;;;19.00;75.00;;;;;;4895519;29;20192;-72
2023/07/08 02:59:23;;;;;;;8.10;6.20;;;19.10;75.10;;;;;;4891293;29;20195;-69
2023/07/08 03:01:50;;;;;;;8.70;5.80;;;19.10;75.00;;;;;;4894085;29;20191;-72
2023/07/08 03:04:16;;;;;;;7.03;6.10;;;19.10;75.10;;;;;;4895921;29;20704;-68
2023/07/08 03:06:45;;;;;;;8.07;5.65;;;19.10;76.00;;;;;;4898606;29;20686;-67
2023/07/08 03:09:12;;;;;;;6.82;5.63;;;19.40;76.00;;;;;;4897090;29;20197;-68
2023/07/08 03:11:38;;;;;;;7.90;6.22;;;19.10;75.20;;;;;;4897592;29;20194;-66
2023/07/08 03:14:05;;;;;;;7.60;5.50;;;19.30;75.30;;;;;;4894516;29;20207;-66
2023/07/08 03:16:31;;;;;;;9.73;6.80;;;19.50;74.70;;;;;;4894892;29;20187;-68
2023/07/08 03:18:57;;;;;;;6.73;5.90;;;19.40;73.70;;;;;;4900637;29;20183;-68
2023/07/08 03:21:22;;;;;;;9.07;5.97;;;19.40;73.60;;;;;;4898523;29;20202;-68
2023/07/08 03:23:49;;;;;;;7.13;6.10;;;19.50;73.70;;;;;;4899588;29;20215;-67
2023/07/08 03:26:21;;;;;;;7.55;6.38;;;19.70;73.70;;;;;;4902168;29;20455;-66
2023/07/08 03:28:47;;;;;;;7.35;5.80;;;19.60;74.40;;;;;;4898783;29;20202;-68
2023/07/08 03:31:13;;;;;;;6.43;5.18;;;19.60;74.40;;;;;;4901464;29;20195;-67
2023/07/08 03:33:39;;;;;;;8.30;6.10;;;19.80;73.70;;;;;;4899279;29;20644;-67
2023/07/08 03:36:22;;;;;;;6.50;5.80;;;19.90;73.20;;;;;;4892588;29;20451;-65
2023/07/08 03:38:52;;;;;;;7.47;6.43;;;19.90;72.70;;;;;;4894197;29;20690;-67
2023/07/08 03:41:18;;;;;;;7.60;6.28;;;19.70;72.70;;;;;;4894339;29;20187;-66
2023/07/08 03:43:44;;;;;;;6.70;5.63;;;19.60;73.30;;;;;;4893657;29;20207;-66
2023/07/08 03:46:14;;;;;;;7.73;5.60;;;19.70;73.10;;;;;;4894429;29;20891;-66
2023/07/08 03:48:40;;;;;;;6.93;6.15;;;19.90;73.30;;;;;;4894590;29;20261;-66
2023/07/08 03:51:13;;;;;;;7.30;5.60;;;19.70;73.10;;;;;;4894891;29;20221;-66
2023/07/08 03:53:39;;;;;;;6.65;5.97;;;19.70;73.90;;;;;;4895892;29;20491;-66
2023/07/08 03:56:05;;;;;;;7.67;5.83;;;19.80;74.20;;;;;;4894156;29;20219;-67
2023/07/08 03:58:30;;;;;;;7.07;6.00;;;19.90;73.60;;;;;;4893242;29;20194;-66
2023/07/08 04:00:56;;;;;;;7.30;6.30;;;19.80;73.80;;;;;;4895179;29;20179;-66
2023/07/08 04:03:21;;;;;;;8.63;5.67;;;19.70;74.60;;;;;;4897207;29;20211;-66
2023/07/08 04:05:47;;;;;;;6.83;5.80;;;19.60;75.00;;;;;;4895399;29;20237;-67
2023/07/08 04:08:13;;;;;;;7.80;5.60;;;19.70;75.40;;;;;;4896633;29;20199;-67
2023/07/08 04:10:38;;;;;;;7.47;6.00;;;19.70;75.20;;;;;;4896187;29;20275;-67
2023/07/08 04:13:04;;;;;;;6.37;5.77;;;19.80;75.30;;;;;;4891730;29;20210;-67
2023/07/08 04:15:29;;;;;;;6.60;5.50;;;19.80;75.60;;;;;;4895731;29;20269;-68
2023/07/08 04:17:57;;;;;;;7.70;6.13;;;19.90;75.60;;;;;;4896464;29;20183;-68
2023/07/08 04:20:23;;;;;;;6.63;6.00;;;20.00;74.50;;;;;;4892052;29;20198;-68
2023/07/08 04:22:49;;;;;;;7.00;5.82;;;20.00;74.20;;;;;;4894075;29;20647;-69
2023/07/08 04:25:15;;;;;;;7.60;6.43;;;20.10;74.80;;;;;;4893515;29;20689;-69
2023/07/08 04:27:41;;;;;;;8.10;6.03;;;20.00;74.30;;;;;;4892772;29;20197;-69
2023/07/08 04:30:17;;;;;;;5.90;5.30;;;20.00;75.70;;;;;;4894230;29;20673;-69
2023/07/08 04:32:43;;;;;;;7.22;6.43;;;20.20;76.20;;;;;;4892215;29;20233;-69
2023/07/08 04:35:09;;;;;;;6.30;5.20;;;20.20;74.50;;;;;;4892933;29;20242;-69
2023/07/08 04:37:35;;;;;;;8.53;6.00;;;;;;;;;;4892166;29;20261;-69
2023/07/08 04:40:00;;;;;;;9.80;5.93;;;20.30;73.80;;;;;;4894199;29;20487;-69
2023/07/08 04:42:28;;;;;;;8.63;6.00;;;20.30;74.30;;;;;;4896590;29;20470;-69
2023/07/08 04:44:54;;;;;;;6.70;6.00;;;20.60;75.00;;;;;;4893262;29;20194;-70
2023/07/08 04:47:20;;;;;;;6.57;5.43;;;20.70;73.90;;;;;;4897146;29;20202;-76
2023/07/08 04:49:53;;;;;;;8.25;6.00;;;20.80;72.80;;;;;;5085857;27;20572;-78
2023/07/08 04:52:18;;;;;;;7.20;6.20;;;21.00;72.30;;;;;;5085398;28;20753;-78
2023/07/08 04:54:44;;;;;;;7.70;6.03;;;21.20;72.10;;;;;;5086375;28;20444;-80
2023/07/08 04:57:09;;;;;;;9.50;5.97;;;21.40;71.50;;;;;;5085491;28;20171;-78
2023/07/08 04:59:35;;;;;;;6.90;6.10;;;21.40;71.30;;;;;;5080738;28;20670;-78
2023/07/08 05:02:01;;;;;;;7.07;6.37;;;21.50;70.80;;;;;;5084068;28;20184;-79
2023/07/08 05:04:26;;;;;;;7.20;5.77;;;21.60;70.50;;;;;;5084168;28;20180;-78
2023/07/08 05:06:52;;;;;;;7.07;5.97;;;21.70;71.10;;;;;;5083046;28;20227;-78
2023/07/08 05:09:18;;;;;;;6.27;5.63;;;21.80;70.90;;;;;;5082924;28;20207;-78
2023/07/08 05:11:44;;;;;;;8.37;6.67;;;21.80;70.30;;;;;;5085095;28;20449;-78
2023/07/08 05:14:12;;;;;;;9.37;6.27;;;21.80;70.20;;;;;;5079233;28;20538;-79
2023/07/08 05:16:38;;;;;;;7.60;6.53;;;22.00;71.10;;;;;;5082263;28;20176;-74
2023/07/08 05:19:03;;;;;;;8.97;6.90;;;22.10;70.40;;;;;;5075935;28;20816;-69
2023/07/08 05:21:33;;;;;;;8.60;6.30;;;22.30;70.30;;;;;;5086453;28;20192;-69
2023/07/08 05:23:59;;;;;;;7.20;6.20;;;22.50;70.10;;;;;;5087084;28;20461;-72
2023/07/08 05:26:25;;;;;;;6.77;5.43;;;22.60;69.10;;;;;;5089649;28;20490;-72
2023/07/08 05:28:50;;;;;;;6.63;6.03;;;22.90;68.10;;;;;;5081560;28;20501;-72
2023/07/08 05:31:16;;;;;;;6.87;6.17;;;23.10;67.60;;;;;;5081247;28;20177;-71
2023/07/08 05:33:42;;;;;;;7.10;5.93;;;23.30;67.30;;;;;;5081025;28;20200;-71
2023/07/08 05:36:07;;;;;;;7.00;6.20;;;23.50;66.80;;;;;;5083951;28;20206;-71
2023/07/08 05:38:33;;;;;;;7.00;6.40;;;23.80;67.50;;;;;;5074915;28;20180;-71
2023/07/08 05:40:59;;;;;;;7.60;6.10;;;24.00;67.50;;;;;;5085239;28;20187;-71
2023/07/08 05:43:25;;;;;;;8.20;6.87;;;24.10;67.00;;;;;;5087179;28;20207;-72
2023/07/08 05:45:51;;;;;;;9.80;5.70;;;24.30;66.00;;;;;;5088935;28;20434;-71
2023/07/08 05:48:17;;;;;;;6.43;5.73;;;24.40;63.10;;;;;;5085172;28;20470;-72
2023/07/08 05:50:44;;;;;;;8.13;6.40;;;24.50;61.30;;;;;;5082155;28;20471;-71
2023/07/08 05:53:11;;;;;;;10.10;6.37;;;24.60;59.80;;;;;;5081122;28;20901;-72
2023/07/08 05:55:36;;;;;;;10.20;8.07;;;25.20;60.10;;;;;;5083518;28;20525;-71
2023/07/08 05:58:02;;;;;;;8.70;6.13;;;24.90;60.60;;;;;;5084770;28;21251;-71
2023/07/08 06:00:28;;;;;;;6.73;6.00;;;25.00;60.10;;;;;;5075550;28;21360;-71
2023/07/08 06:02:54;;;;;;;6.40;5.80;;;25.00;59.80;;;;;;5071622;28;20211;-71
2023/07/08 06:05:20;;;;;;;9.80;6.63;;;25.20;58.10;;;;;;5074645;28;20522;-72
2023/07/08 06:07:45;;;;;;;7.03;5.90;;;25.30;58.30;;;;;;5072028;28;20239;-72
2023/07/08 06:10:11;;;;;;;6.80;6.20;;;25.30;57.30;;;;;;5071194;28;20215;-72
2023/07/08 06:12:37;;;;;;;6.53;5.80;;;25.30;57.50;;;;;;5071477;28;20207;-71
2023/07/08 06:15:03;;;;;;;6.60;5.90;;;25.40;57.70;;;;;;5071089;28;21035;-72
2023/07/08 06:17:28;;;;;;;6.77;5.23;;;25.40;56.70;;;;;;5069365;28;20437;-71
2023/07/08 06:19:54;;;;;;;8.07;7.00;;;25.60;56.70;;;;;;5072520;28;20536;-72
2023/07/08 06:22:20;;;;;;;7.07;6.37;;;25.80;56.80;;;;;;5070849;28;20238;-72
2023/07/08 06:24:47;;;;;;;8.30;7.10;;;26.00;56.10;;;;;;5072202;28;20214;-71
2023/07/08 06:27:13;;;;;;;6.40;5.80;;;26.10;55.90;;;;;;5072196;28;20182;-72
2023/07/08 06:29:38;;;;;;;8.07;6.43;;;26.30;55.40;;;;;;5075474;28;20484;-72
2023/07/08 06:32:04;;;;;;;7.90;7.10;;;26.60;55.00;;;;;;5068790;28;20211;-71
2023/07/08 06:34:30;;;;;;;9.33;5.80;;;26.50;54.10;;;;;;5072083;28;20185;-71
2023/07/08 06:36:55;;;;;;;8.00;5.50;;;26.60;53.90;;;;;;5068456;28;20445;-71
2023/07/08 06:39:21;;;;;;;6.53;5.90;;;26.60;54.00;;;;;;5073253;28;20201;-71
2023/07/08 06:41:47;;;;;;;7.10;6.37;;;26.70;54.80;;;;;;5074896;28;20199;-72
2023/07/08 06:44:12;;;;;;;6.47;5.80;;;26.90;54.90;;;;;;5068937;28;20212;-71
2023/07/08 06:46:38;;;;;;;6.50;5.43;;;26.90;54.20;;;;;;5072887;28;20184;-72
2023/07/08 06:49:03;;;;;;;7.17;5.97;;;27.00;54.10;;;;;;5065586;28;20228;-73
2023/07/08 06:51:29;;;;;;;7.27;5.57;;;27.10;54.10;;;;;;5070708;28;20662;-75
2023/07/08 06:53:55;;;;;;;6.17;5.57;;;27.30;54.00;;;;;;5066048;28;20288;-74
2023/07/08 06:56:21;;;;;;;6.50;5.57;;;27.30;54.10;;;;;;5063291;28;20563;-74
2023/07/08 06:58:46;;;;;;;6.40;5.17;;;27.70;53.70;;;;;;5067453;28;20196;-72
2023/07/08 07:01:12;;;;;;;5.30;4.80;;;27.90;53.20;;;;;;5068502;28;20448;-74
2023/07/08 07:03:38;;;;;;;6.10;5.43;;;27.80;53.10;;;;;;5069752;28;20214;-74
2023/07/08 07:06:04;;;;;;;6.70;6.00;;;27.70;53.50;;;;;;5068419;28;20437;-71
2023/07/08 07:08:29;;;;;;;5.30;4.80;;;28.10;54.20;;;;;;5068458;28;20250;-74
2023/07/08 07:10:55;;;;;;;6.30;4.00;;;27.50;54.30;;;;;;5066055;28;20238;-74
2023/07/08 07:13:20;;;;;;;6.70;4.93;;;27.50;54.50;;;;;;5062281;28;20197;-74
2023/07/08 07:15:49;;;;;;;6.90;4.63;;;27.20;55.30;;;;;;5065453;28;20184;-74
2023/07/08 07:18:14;;;;;;;4.37;3.97;;;27.30;55.70;;;;;;5065615;28;20272;-73
2023/07/08 07:20:50;;;;;;;8.10;5.63;;;27.20;55.90;;;;;;5064478;28;20568;-74
2023/07/08 07:23:16;;;;;;;5.27;4.77;;;27.20;56.10;;;;;;5063660;28;20690;-74
2023/07/08 07:25:42;;;;;;;6.27;4.47;;;27.10;56.40;;;;;;5068027;28;20454;-73
2023/07/08 07:28:07;;;;;;;4.80;4.30;;;27.10;56.40;;;;;;5065620;28;20496;-74
2023/07/08 07:30:33;;;;;;;6.17;3.97;;;27.10;56.60;;;;;;5060936;28;20177;-72
2023/07/08 07:33:00;;;;;;;6.60;4.80;;;27.10;56.70;;;;;;5063850;28;20199;-71
2023/07/08 07:35:26;;;;;;;7.90;5.10;;;27.30;56.80;;;;;;5069211;28;20442;-71
2023/07/08 07:37:51;;;;;;;5.17;4.50;;;27.50;56.70;;;;;;5064744;28;21822;-72
2023/07/08 07:40:17;;;;;;;5.73;5.13;;;27.50;56.60;;;;;;5067699;28;20271;-72
2023/07/08 07:42:44;;;;;;;5.13;4.60;;;27.50;56.50;;;;;;5068001;28;20280;-72
2023/07/08 07:45:11;;;;;;;5.17;4.60;;;27.60;56.60;;;;;;5070083;28;20192;-70
2023/07/08 07:47:37;;;;;;;6.03;4.73;;;27.60;56.10;;;;;;5071107;28;20447;-71
2023/07/08 07:50:05;;;;;;;5.43;4.73;;;27.60;56.70;;;;;;5072598;28;20451;-72
2023/07/08 07:52:31;;;;;;;5.13;4.50;;;27.90;56.40;;;;;;5070630;28;20543;-72
2023/07/08 07:54:56;;;;;;;6.10;4.47;;;28.10;56.30;;;;;;5072866;28;20865;-73
2023/07/08 07:57:22;;;;;;;5.70;4.30;;;28.80;55.10;;;;;;5072617;28;20192;-73
2023/07/08 07:59:49;;;;;;;5.77;4.33;;;30.10;53.60;;;;;;5075247;28;20193;-74
2023/07/08 08:02:15;;;;;;;5.00;4.60;;;31.60;51.10;;;;;;5075812;28;21127;-73
2023/07/08 08:04:41;;;;;;;5.50;4.10;;;32.60;48.50;;;;;;5079362;28;20513;-73
2023/07/08 08:07:07;;;;;;;6.83;4.00;;;33.70;46.70;;;;;;5075521;28;20441;-73
2023/07/08 08:09:32;;;;;;;5.00;4.10;;;35.10;44.70;;;;;;5077528;28;20254;-73
2023/07/08 08:11:58;;;;;;;7.30;3.73;;;36.10;42.30;;;;;;5081939;28;20710;-73
2023/07/08 08:14:23;;;;;;;8.30;6.70;;;35.50;41.20;;;;;;5076479;28;20211;-73
2023/07/08 08:16:49;;;;;;;4.80;4.40;;;35.90;40.40;;;;;;5080299;28;20177;-73
2023/07/08 08:19:15;;;;;;;5.43;4.17;;;37.40;39.70;;;;;;5078016;28;20188;-73
2023/07/08 08:21:40;;;;;;;4.07;3.57;;;39.10;36.90;;;;;;5081632;28;20270;-74
2023/07/08 08:24:06;;;;;;;4.90;4.30;;;39.00;36.10;;;;;;5077082;28;20216;-74
2023/07/08 08:26:32;;;;;;;4.63;3.67;;;38.80;35.80;;;;;;5082304;28;20247;-73
2023/07/08 08:28:57;;;;;;;3.90;3.60;;;38.40;36.90;;;;;;5078160;28;20212;-73
2023/07/08 08:31:23;;;;;;;4.00;3.37;;;37.80;35.60;;;;;;5076201;28;20181;-73
2023/07/08 08:33:50;;;;;;;4.30;3.90;;;37.80;35.70;;;;;;5076298;28;20211;-73
2023/07/08 08:36:16;;;;;;;6.10;3.70;;;38.00;35.20;;;;;;5079465;28;20184;-74
2023/07/08 08:38:42;;;;;;;4.03;3.60;;;38.90;34.40;;;;;;5071157;28;21369;-74
2023/07/08 08:41:16;;;;;;;5.50;3.60;;;39.00;33.80;;;;;;5076978;28;20275;-73
2023/07/08 08:43:43;;;;;;;6.20;4.27;;;37.70;34.50;;;;;;5078115;28;20665;-74
2023/07/08 08:46:23;;;;;;;5.83;3.40;;;36.50;36.40;;;;;;5071294;28;20452;-74
2023/07/08 08:48:59;;;;;;;5.47;3.77;;;35.70;36.70;;;;;;5071878;28;20528;-73
2023/07/08 08:51:28;;;;;;;6.13;3.30;;;37.00;36.20;;;;;;5071786;28;20439;-73
2023/07/08 08:53:57;;;;;;;4.73;3.57;;;36.80;36.10;;;;;;5068900;28;20466;-73
2023/07/08 08:56:27;;;;;;;4.30;2.80;;;36.80;36.60;;;;;;5071162;28;20883;-73
2023/07/08 08:58:52;;;;;;;2.97;2.77;;;37.60;35.10;;;;;;5067060;28;21810;-74
2023/07/08 09:01:18;;;;;;;4.43;3.03;;;38.50;34.30;;;;;;5071854;28;20433;-74
2023/07/08 09:04:02;;;;;;;3.07;2.80;;;39.20;34.20;;;;;;5084903;28;20217;-74
2023/07/08 09:06:30;;;;;;;3.83;3.53;;;40.50;32.30;;;;;;5075216;28;20192;-74
2023/07/08 09:09:16;;;;;;;3.60;3.30;;;41.40;30.70;;;;;;5076752;28;20474;-75
2023/07/08 09:12:00;;;;;;;3.00;2.63;;;42.70;29.90;;;;;;5072452;28;20447;-75
2023/07/08 09:14:28;;;;;;;3.50;2.90;;;43.20;28.50;;;;;;5074916;28;20446;-75
2023/07/08 09:17:22;;;;;;;3.40;3.10;;;42.70;28.30;;;;;;5069826;28;20435;-75
2023/07/08 09:20:22;;;;;;;3.20;3.00;;;42.40;28.10;;;;;;5069711;28;20434;-75
2023/07/08 09:22:58;;;;;;;3.57;2.90;;;41.90;28.70;;;;;;5062438;28;20478;-71
2023/07/08 09:25:27;;;;;;;3.80;3.50;;;41.40;29.10;;;;;;5066010;28;20477;-70
2023/07/08 09:27:53;;;;;;;3.20;2.90;;;41.80;29.10;;;;;;5068085;28;20533;-71
2023/07/08 09:30:21;;;;;;;3.63;3.33;;;42.20;28.70;;;;;;5064263;28;20531;-74
2023/07/08 09:32:48;;;;;;;3.53;3.00;;;43.00;28.60;;;;;;5064131;28;20578;-71
2023/07/08 09:35:21;;;;;;;3.53;2.90;;;43.50;28.20;;;;;;5065926;28;20453;-70
2023/07/08 09:37:48;;;;;;;5.20;3.20;;;43.70;26.90;;;;;;5067763;28;20526;-72
2023/07/08 09:40:18;;;;;;;4.00;2.87;;;43.80;27.10;;;;;;5071171;28;20438;-71
2023/07/08 09:42:48;;;;;;;3.50;3.20;;;43.40;27.10;;;;;;5070373;28;20458;-71
2023/07/08 09:45:17;;;;;;;2.93;2.60;;;43.10;27.10;;;;;;5069234;28;20479;-70
2023/07/08 09:47:45;;;;;;;3.30;2.93;;;42.70;27.10;;;;;;5069430;28;20468;-66
2023/07/08 09:50:23;;;;;;;3.37;2.67;;;42.80;27.70;;;;;;5069103;28;20443;-70
2023/07/08 09:52:51;;;;;;;3.33;3.03;;;42.50;27.30;;;;;;5071419;28;20485;-68
2023/07/08 09:55:17;;;;;;;3.10;2.80;;;42.50;27.80;;;;;;5072936;28;20511;-69
2023/07/08 09:57:46;;;;;;;3.10;2.80;;;42.50;27.30;;;;;;5067696;28;20930;-72
2023/07/08 10:00:17;;;;;;;3.13;2.90;;;42.50;27.20;;;;;;5074042;28;21244;-72
2023/07/08 10:02:52;;;;;;;3.73;3.10;;;43.50;26.70;;;;;;5073113;28;20484;-71
2023/07/08 10:05:19;;;;;;;3.23;2.93;;;42.20;26.90;;;;;;5075427;28;20443;-68
2023/07/08 10:07:46;;;;;;;6.53;3.57;;;41.50;27.80;;;;;;5071558;28;21024;-70
2023/07/08 10:10:17;;;;;;;3.80;3.17;;;40.00;28.90;;;;;;5067567;28;20531;-69
2023/07/08 10:12:53;;;;;;;6.30;4.10;;;38.90;29.80;;;;;;5074559;28;20470;-74
2023/07/08 10:15:26;;;;;;;4.03;3.57;;;37.60;31.50;;;;;;5077461;28;20498;-73
2023/07/08 10:17:53;;;;;;;4.77;3.30;;;36.70;33.00;;;;;;5072033;28;20457;-76
2023/07/08 10:20:20;;;;;;;3.83;3.53;;;35.70;34.40;;;;;;5070810;28;20447;-71
2023/07/08 10:23:00;;;;;;;4.37;3.40;;;34.60;36.10;;;;;;5071728;28;21025;-72
2023/07/08 10:25:43;;;;;;;4.60;3.63;;;33.90;37.70;;;;;;5070767;28;20493;-76
2023/07/08 10:28:39;;;;;;;3.80;3.50;;;33.40;38.80;;;;;;5066402;28;20886;-71
2023/07/08 10:31:45;;;;;;;4.40;4.00;;;33.70;39.40;;;;;;5066380;28;20443;-75
2023/07/08 10:34:19;;;;;;;7.13;3.87;;;34.00;39.00;;;;;;5066058;28;20512;-74
2023/07/08 10:37:00;;;;;;;5.80;4.60;;;33.50;39.90;;;;;;5069251;28;20450;-71
2023/07/08 10:40:07;;;;;;;4.27;3.30;;;33.30;40.10;;;;;;5057956;28;20785;-69
2023/07/08 10:42:39;;;;;;;4.63;3.40;;;33.40;40.00;;;;;;5069779;28;20478;-71
2023/07/08 10:45:10;;;;;;;3.97;3.57;;;34.10;39.60;;;;;;5068595;28;20457;-79
2023/07/08 10:47:54;;;;;;;4.90;3.10;;;34.80;37.90;;;;;;5059555;28;20457;-70
2023/07/08 10:50:32;;;;;;;3.63;3.30;;;35.30;37.00;;;;;;5067993;28;20475;-72
2023/07/08 10:53:19;;;;;;;4.30;3.43;;;36.00;36.10;;;;;;5068899;28;20473;-73
2023/07/08 10:56:13;;;;;;;3.30;3.00;;;36.40;35.30;;;;;;5072094;28;20463;-69
2023/07/08 10:58:44;;;;;;;4.90;3.33;;;37.00;34.30;;;;;;5071600;28;20445;-70
2023/07/08 11:01:48;;;;;;;4.70;3.10;;;36.80;34.40;;;;;;5073915;28;20553;-71
2023/07/08 11:04:35;;;;;;;4.20;3.57;;;37.00;34.30;;;;;;5076342;28;20458;-70
2023/07/08 11:07:26;;;;;;;3.73;3.43;;;35.50;35.00;;;;;;5071537;28;21144;-71
2023/07/08 11:10:02;;;;;;;7.73;3.57;;;35.50;36.00;;;;;;5073110;28;20472;-74
2023/07/08 11:12:32;;;;;;;3.70;3.27;;;35.50;36.60;;;;;;5063617;28;20455;-75
2023/07/08 11:15:11;;;;;;;3.70;2.60;;;35.70;36.50;;;;;;5069235;28;20426;-71
2023/07/08 11:17:52;;;;;;;3.47;3.17;;;35.90;36.40;;;;;;5070440;28;20801;-72
2023/07/08 11:20:41;;;;;;;3.37;3.00;;;36.60;35.20;;;;;;5069698;28;20787;-72
2023/07/08 11:23:33;;;;;;;4.20;2.73;;;36.40;35.20;;;;;;5060665;28;20466;-69
2023/07/08 11:26:18;;;;;;;3.57;3.27;;;35.50;36.00;;;;;;5069656;28;20422;-68
2023/07/08 11:28:44;;;;;;;3.90;3.50;;;35.00;37.00;;;;;;5066749;28;20482;-73
2023/07/08 11:31:11;;;;;;;6.03;2.90;;;34.50;37.70;;;;;;5067329;28;20442;-74
2023/07/08 11:33:38;;;;;;;4.90;3.47;;;34.60;37.70;;;;;;5066320;28;20240;-73
2023/07/08 11:36:05;;;;;;;3.80;3.50;;;34.70;38.60;;;;;;5065607;28;20439;-74
2023/07/08 11:38:34;;;;;;;3.47;3.17;;;34.90;37.70;;;;;;5063464;28;21216;-75
2023/07/08 11:41:11;;;;;;;4.67;2.90;;;34.70;37.80;;;;;;5061308;28;20603;-75
2023/07/08 11:44:05;;;;;;;3.07;2.87;;;35.30;37.40;;;;;;5064955;28;20465;-74
2023/07/08 11:46:33;;;;;;;3.23;2.90;;;36.40;35.90;;;;;;5067318;28;20919;-74
2023/07/08 11:49:12;;;;;;;3.40;3.10;;;36.80;35.50;;;;;;5069073;28;20557;-74
2023/07/08 11:51:41;;;;;;;3.07;2.70;;;37.10;35.10;;;;;;5065930;28;21044;-74
2023/07/08 11:54:11;;;;;;;4.20;3.00;;;36.60;35.10;;;;;;5066714;28;20550;-74
2023/07/08 11:56:56;;;;;;;5.60;3.13;;;36.60;35.20;;;;;;5067205;28;20881;-74
2023/07/08 11:59:24;;;;;;;4.37;3.80;;;36.20;35.50;;;;;;5064980;28;20440;-74
2023/07/08 12:02:02;;;;;;;3.33;3.03;;;36.00;36.10;;;;;;5068088;28;20530;-74
2023/07/08 12:04:29;;;;;;;3.37;3.07;;;35.50;36.20;;;;;;5082067;28;20553;-74
2023/07/08 12:07:19;;;;;;;6.27;3.40;;;35.10;37.10;;;;;;5056653;28;20442;-74
2023/07/08 12:10:17;;;;;;;4.60;3.47;;;34.30;37.80;;;;;;5066886;28;20467;-74
2023/07/08 12:12:44;;;;;;;3.13;2.87;;;33.90;38.90;;;;;;5063621;28;20451;-74
2023/07/08 12:15:23;;;;;;;3.10;2.90;;;33.50;39.70;;;;;;5065086;28;20477;-74
2023/07/08 12:17:51;;;;;;;3.40;3.13;;;33.30;40.10;;;;;;5066162;28;20439;-74
2023/07/08 12:20:25;;;;;;;7.03;6.33;;;33.00;40.20;;;;;;5061592;28;20458;-74
2023/07/08 12:22:51;;;;;;;4.10;3.03;;;32.80;41.00;;;;;;5061859;28;20493;-74
2023/07/08 12:25:21;;;;;;;3.10;2.80;;;32.70;41.10;;;;;;5069222;28;20558;-74
2023/07/08 12:27:47;;;;;;;3.30;3.00;;;32.70;40.30;;;;;;5063065;28;20442;-74
2023/07/08 12:30:15;;;;;;;3.57;3.20;;;32.60;40.40;;;;;;5067593;28;20500;-74
2023/07/08 12:32:41;;;;;;;3.40;2.83;;;32.60;40.60;;;;;;5063024;28;20615;-74
2023/07/08 12:35:36;;;;;;;3.10;2.80;;;32.50;40.30;;;;;;5059551;28;20443;-66
2023/07/08 12:38:06;;;;;;;3.27;2.60;;;32.60;40.80;;;;;;5061117;28;20450;-69
2023/07/08 12:40:32;;;;;;;2.93;2.73;;;32.60;40.50;;;;;;5066081;28;20449;-67
2023/07/08 12:43:01;;;;;;;3.10;2.80;;;32.60;40.20;;;;;;5066919;28;20565;-73
2023/07/08 12:45:32;;;;;;;3.27;2.53;;;32.60;40.10;;;;;;5067152;28;20180;-68
2023/07/08 12:47:57;;;;;;;3.20;2.90;;;32.60;40.10;;;;;;5068847;28;20827;-69
2023/07/08 12:50:23;;;;;;;4.57;2.90;;;32.50;40.30;;;;;;5065503;28;20450;-70
2023/07/08 12:52:48;;;;;;;2.70;2.33;;;32.60;40.30;;;;;;5067038;28;20208;-69
2023/07/08 12:55:15;;;;;;;5.60;2.77;;;32.60;40.30;;;;;;5068980;28;20769;-69
2023/07/08 12:57:45;;;;;;;8.70;3.10;;;32.50;40.30;;;;;;5063573;28;20180;-71
2023/07/08 13:00:29;;;;;;;4.00;2.70;;;32.40;40.60;;;;;;5068703;28;20457;-71